createdAt,value
2022-11-16T00:01:43.502Z,1.43
2022-11-16T00:04:12.068Z,1.51
2022-11-16T00:06:39.100Z,1.54
2022-11-16T00:09:24.022Z,1.63
2022-11-16T00:11:53.123Z,1.39
2022-11-16T00:14:21.264Z,1.37
2022-11-16T00:16:48.052Z,1.36
2022-11-16T00:19:14.701Z,1.31
2022-11-16T00:21:41.561Z,1.24
2022-11-16T00:24:12.044Z,1.44
2022-11-16T00:26:38.710Z,1.51
2022-11-16T00:29:05.423Z,1.59
2022-11-16T00:31:32.064Z,1.66
2022-11-16T00:33:58.651Z,1.52
2022-11-16T00:36:25.348Z,1.45
2022-11-16T00:38:53.867Z,1.44
2022-11-16T00:41:20.600Z,1.25
2022-11-16T00:43:47.201Z,1.28
2022-11-16T00:46:13.938Z,0.88
2022-11-16T00:48:40.669Z,0.92
2022-11-16T00:51:07.458Z,0.91
2022-11-16T00:53:35.653Z,1.03
2022-11-16T00:56:02.288Z,1.22
2022-11-16T00:58:28.929Z,1.28
2022-11-16T01:00:55.643Z,1.42
2022-11-16T01:03:22.343Z,1.19
2022-11-16T01:05:49.057Z,1.16
2022-11-16T01:08:15.746Z,1.43
2022-11-16T01:10:42.516Z,1.49
2022-11-16T01:13:10.822Z,1.50
2022-11-16T01:15:37.503Z,1.55
2022-11-16T01:18:04.302Z,1.62
2022-11-16T01:20:31.005Z,1.37
2022-11-16T01:22:57.743Z,1.53
2022-11-16T01:25:24.563Z,1.55
2022-11-16T01:27:51.333Z,1.44
2022-11-16T01:30:18.250Z,1.32
2022-11-16T01:32:45.012Z,1.11
2022-11-16T01:35:16.824Z,0.99
2022-11-16T01:37:43.672Z,0.97
2022-11-16T01:40:11.823Z,1.06
2022-11-16T01:42:38.579Z,1.25
2022-11-16T01:45:23.557Z,1.29
2022-11-16T01:47:51.243Z,1.17
2022-11-16T01:50:18.615Z,1.26
2022-11-16T01:52:50.334Z,1.10
2022-11-16T01:55:17.210Z,1.33
2022-11-16T01:57:45.843Z,1.35
2022-11-16T02:00:13.860Z,1.36
2022-11-16T02:02:41.583Z,1.25
2022-11-16T02:05:08.663Z,1.31
2022-11-16T02:08:22.991Z,1.24
2022-11-16T02:11:10.862Z,1.13
2022-11-16T02:13:57.711Z,1.12
2022-11-16T02:16:39.219Z,0.97
2022-11-16T02:19:50.963Z,0.80
2022-11-16T02:22:42.399Z,0.73
2022-11-16T02:25:39.892Z,0.93
2022-11-16T02:28:09.448Z,0.77
2022-11-16T02:30:37.085Z,0.77
2022-11-16T02:33:12.792Z,0.76
2022-11-16T02:35:43.954Z,0.87
2022-11-16T02:38:19.748Z,0.77
2022-11-16T02:40:53.082Z,0.76
2022-11-16T02:43:26.563Z,0.62
2022-11-16T02:45:56.392Z,0.72
2022-11-16T02:48:28.534Z,0.66
2022-11-16T02:50:56.329Z,0.81
2022-11-16T02:53:25.261Z,0.91
2022-11-16T02:55:52.190Z,0.87
2022-11-16T02:58:21.959Z,0.87
2022-11-16T03:00:59.690Z,0.74
2022-11-16T03:03:55.348Z,0.87
2022-11-16T03:06:29.437Z,0.76
2022-11-16T03:09:09.155Z,0.69
2022-11-16T03:11:58.369Z,0.72
2022-11-16T03:14:27.471Z,0.93
2022-11-16T03:16:57.081Z,0.75
2022-11-16T03:19:34.191Z,0.90
2022-11-16T03:22:23.372Z,0.88
2022-11-16T03:24:50.806Z,0.96
2022-11-16T03:27:39.571Z,0.88
2022-11-16T03:30:10.833Z,0.78
2022-11-16T03:32:52.191Z,0.80
2022-11-16T03:35:22.513Z,0.98
2022-11-16T03:37:50.956Z,0.92
2022-11-16T03:40:18.791Z,0.98
2022-11-16T03:42:46.431Z,0.71
2022-11-16T03:45:13.750Z,0.71
2022-11-16T03:47:42.002Z,0.76
2022-11-16T03:50:09.892Z,0.77
2022-11-16T03:52:36.575Z,0.60
2022-11-16T03:55:03.784Z,0.50
2022-11-16T03:57:30.522Z,0.42
2022-11-16T03:59:57.251Z,0.40
2022-11-16T04:02:23.910Z,0.18
2022-11-16T04:05:09.133Z,0.23
2022-11-16T04:07:54.232Z,0.41
2022-11-16T04:10:39.492Z,0.35
2022-11-16T04:13:28.350Z,0.47
2022-11-16T04:16:13.509Z,0.44
2022-11-16T04:18:59.102Z,0.46
2022-11-16T04:21:46.513Z,0.60
2022-11-16T04:24:16.454Z,0.72
2022-11-16T04:27:04.641Z,0.62
2022-11-16T04:29:31.595Z,0.62
2022-11-16T04:32:16.862Z,0.68
2022-11-16T04:35:01.959Z,0.69
2022-11-16T04:37:47.210Z,0.75
2022-11-16T04:40:15.002Z,0.83
2022-11-16T04:42:41.737Z,0.83
2022-11-16T04:45:27.444Z,0.88
2022-11-16T04:47:54.569Z,0.97
2022-11-16T04:50:21.499Z,1.04
2022-11-16T04:52:49.602Z,1.13
2022-11-16T04:55:16.494Z,1.14
2022-11-16T04:57:43.194Z,1.21
2022-11-16T05:00:10.647Z,1.10
2022-11-16T05:02:37.502Z,1.07
2022-11-16T05:05:04.419Z,1.11
2022-11-16T05:07:31.215Z,1.14
2022-11-16T05:09:57.904Z,1.20
2022-11-16T05:12:26.593Z,1.21
2022-11-16T05:14:55.032Z,1.07
2022-11-16T05:17:23.085Z,1.15
2022-11-16T05:20:12.584Z,1.14
2022-11-16T05:22:39.451Z,1.20
2022-11-16T05:25:07.644Z,1.21
2022-11-16T05:27:34.235Z,1.21
2022-11-16T05:30:00.867Z,1.22
2022-11-16T05:32:28.079Z,1.21
2022-11-16T05:34:54.771Z,1.18
2022-11-16T05:37:21.439Z,1.11
2022-11-16T05:39:48.403Z,1.09
2022-11-16T05:42:15.212Z,0.97
2022-11-16T05:44:41.869Z,1.02
2022-11-16T05:47:08.502Z,1.05
2022-11-16T05:49:35.213Z,1.02
2022-11-16T05:52:01.965Z,1.06
2022-11-16T05:54:28.674Z,1.13
2022-11-16T05:56:55.378Z,1.07
2022-11-16T05:59:22.850Z,1.11
2022-11-16T06:01:50.443Z,1.19
2022-11-16T06:06:57.866Z,1.20
2022-11-16T06:09:24.714Z,1.15
2022-11-16T06:11:51.604Z,1.06
2022-11-16T06:14:18.302Z,0.96
2022-11-16T06:16:45.014Z,0.97
2022-11-16T06:19:11.854Z,0.96
2022-11-16T06:21:38.575Z,0.97
2022-11-16T06:24:09.230Z,0.96
2022-11-16T06:26:37.172Z,0.89
2022-11-16T06:29:04.391Z,0.99
2022-11-16T06:31:31.364Z,0.96
2022-11-16T06:33:58.059Z,0.94
2022-11-16T06:36:24.892Z,1.02
2022-11-16T06:38:51.613Z,1.20
2022-11-16T06:41:18.437Z,1.21
2022-11-16T06:43:45.365Z,1.36
2022-11-16T06:46:12.252Z,1.43
2022-11-16T06:48:39.044Z,1.33
2022-11-16T06:51:05.972Z,1.29
2022-11-16T06:53:32.716Z,1.28
2022-11-16T06:56:04.498Z,1.34
2022-11-16T06:58:32.324Z,1.45
2022-11-16T07:01:08.914Z,1.52
2022-11-16T07:03:35.652Z,1.39
2022-11-16T07:06:08.016Z,1.54
2022-11-16T07:08:35.073Z,1.65
2022-11-16T07:11:04.407Z,1.76
2022-11-16T07:13:32.955Z,1.72
2022-11-16T07:16:10.254Z,1.67
2022-11-16T07:18:39.217Z,1.57
2022-11-16T07:21:11.162Z,1.50
2022-11-16T07:23:38.008Z,1.51
2022-11-16T07:26:06.377Z,1.58
2022-11-16T07:28:33.604Z,1.64
2022-11-16T07:31:07.245Z,1.59
2022-11-16T07:33:34.277Z,1.63
2022-11-16T07:36:05.982Z,1.72
2022-11-16T07:38:33.588Z,1.76
2022-11-16T07:41:04.851Z,1.80
2022-11-16T07:43:32.725Z,1.76
2022-11-16T07:46:45.455Z,1.93
2022-11-16T07:49:11.177Z,1.99
2022-11-16T07:51:38.538Z,2.01
2022-11-16T07:54:06.726Z,2.11
2022-11-16T07:56:33.563Z,2.31
2022-11-16T07:59:00.689Z,2.25
2022-11-16T08:01:27.555Z,2.20
2022-11-16T08:03:54.462Z,2.44
2022-11-16T08:06:24.412Z,2.46
2022-11-16T08:08:56.670Z,2.60
2022-11-16T08:11:25.055Z,2.65
2022-11-16T08:13:51.802Z,2.74
2022-11-16T08:16:21.354Z,2.68
2022-11-16T08:18:48.297Z,2.92
2022-11-16T08:21:16.712Z,3.09
2022-11-16T08:23:45.153Z,2.82
2022-11-16T08:26:16.809Z,2.60
2022-11-16T08:28:45.164Z,2.57
2022-11-16T08:31:19.084Z,2.77
2022-11-16T08:33:45.753Z,2.77
2022-11-16T08:36:17.317Z,2.85
2022-11-16T08:38:45.023Z,2.78
2022-11-16T08:41:12.104Z,2.81
2022-11-16T08:43:40.562Z,3.02
2022-11-16T08:46:09.093Z,3.08
2022-11-16T08:48:36.836Z,3.28
2022-11-16T08:51:21.337Z,3.44
2022-11-16T08:53:49.536Z,3.49
2022-11-16T08:56:18.626Z,3.46
2022-11-16T08:58:51.470Z,3.32
2022-11-16T09:01:24.721Z,3.34
2022-11-16T09:03:52.861Z,3.48
2022-11-16T09:06:19.875Z,3.61
2022-11-16T09:08:47.226Z,3.64
2022-11-16T09:11:17.412Z,3.60
2022-11-16T09:13:45.124Z,3.63
2022-11-16T09:16:12.043Z,3.55
2022-11-16T09:18:38.914Z,3.59
2022-11-16T09:21:05.703Z,3.65
2022-11-16T09:23:32.352Z,3.67
2022-11-16T09:26:03.914Z,3.79
2022-11-16T09:28:31.130Z,3.81
2022-11-16T09:31:02.912Z,3.85
2022-11-16T09:33:30.909Z,3.93
2022-11-16T09:36:02.183Z,4.13
2022-11-16T09:38:40.570Z,4.02
2022-11-16T09:41:15.764Z,4.12
2022-11-16T09:43:53.732Z,4.02
2022-11-16T09:46:53.693Z,4.16
2022-11-16T09:49:24.285Z,4.29
2022-11-16T09:51:54.159Z,4.25
2022-11-16T09:54:34.325Z,4.25
2022-11-16T09:57:07.982Z,4.26
2022-11-16T09:59:41.681Z,4.35
2022-11-16T10:02:27.459Z,4.27
2022-11-16T10:05:00.543Z,4.20
2022-11-16T10:07:32.153Z,4.21
2022-11-16T10:09:58.911Z,4.17
2022-11-16T10:12:43.909Z,4.19
2022-11-16T10:15:23.628Z,4.30
2022-11-16T10:18:03.730Z,4.22
2022-11-16T10:20:36.104Z,4.24
2022-11-16T10:23:37.483Z,4.26
2022-11-16T10:26:12.581Z,4.36
2022-11-16T10:29:02.083Z,4.30
2022-11-16T10:32:28.982Z,4.42
2022-11-16T10:35:00.652Z,4.48
2022-11-16T10:37:36.856Z,4.55
2022-11-16T10:40:16.031Z,4.61
2022-11-16T10:42:44.644Z,4.62
2022-11-16T10:45:11.526Z,4.71
2022-11-16T10:47:46.812Z,4.69
2022-11-16T10:50:37.985Z,4.72
2022-11-16T10:53:04.890Z,4.76
2022-11-16T10:55:31.745Z,4.72
2022-11-16T10:58:01.346Z,4.75
2022-11-16T11:00:38.819Z,4.70
2022-11-16T11:03:05.978Z,4.73
2022-11-16T11:05:34.832Z,4.76
2022-11-16T11:08:01.967Z,4.86
2022-11-16T11:10:30.373Z,4.93
2022-11-16T11:13:06.330Z,4.95
2022-11-16T11:15:33.332Z,4.96
2022-11-16T11:18:23.924Z,4.97
2022-11-16T11:21:13.782Z,5.02
2022-11-16T11:24:37.356Z,5.10
2022-11-16T11:26:55.317Z,5.16
2022-11-16T11:29:29.116Z,5.26
2022-11-16T11:32:05.594Z,5.26
2022-11-16T11:34:39.423Z,5.38
2022-11-16T11:37:07.951Z,5.46
2022-11-16T11:39:36.038Z,5.44
2022-11-16T11:42:02.812Z,5.46
2022-11-16T11:44:38.819Z,5.40
2022-11-16T11:50:55.854Z,5.27
2022-11-16T11:53:46.996Z,5.37
2022-11-16T11:56:14.551Z,5.29
2022-11-16T11:58:42.273Z,5.36
2022-11-16T12:01:33.644Z,5.39
2022-11-16T12:04:31.129Z,5.50
2022-11-16T12:07:13.116Z,5.65
2022-11-16T12:09:54.782Z,5.73
2022-11-16T12:12:24.164Z,5.92
2022-11-16T12:15:21.749Z,5.91
2022-11-16T12:17:54.191Z,5.96
2022-11-16T12:20:33.985Z,5.93
2022-11-16T12:23:22.415Z,5.88
2022-11-16T12:26:24.554Z,5.98
2022-11-16T12:29:09.528Z,5.98
2022-11-16T12:31:58.983Z,6.16
2022-11-16T12:34:44.330Z,6.17
2022-11-16T12:37:18.293Z,6.06
2022-11-16T12:40:12.071Z,6.20
2022-11-16T12:42:53.671Z,6.34
2022-11-16T12:45:46.649Z,6.05
2022-11-16T12:48:29.862Z,6.29
2022-11-16T12:51:07.112Z,6.26
2022-11-16T12:53:55.773Z,6.27
2022-11-16T12:56:48.965Z,6.24
2022-11-16T12:59:57.523Z,6.35
2022-11-16T13:02:55.209Z,6.19
2022-11-16T13:05:44.088Z,6.24
2022-11-16T13:08:26.010Z,6.17
2022-11-16T13:10:57.881Z,6.22
2022-11-16T13:13:38.838Z,6.23
2022-11-16T13:16:06.875Z,6.21
2022-11-16T13:18:36.105Z,6.27
2022-11-16T13:21:27.074Z,6.36
2022-11-16T13:24:30.991Z,6.17
2022-11-16T13:27:28.731Z,6.12
2022-11-16T13:30:05.171Z,6.14
2022-11-16T13:32:37.939Z,6.17
2022-11-16T13:35:06.023Z,6.31
2022-11-16T13:37:52.334Z,6.19
2022-11-16T13:40:32.131Z,6.13
2022-11-16T13:43:02.757Z,6.16
2022-11-16T13:45:36.671Z,6.16
2022-11-16T13:48:14.952Z,6.13
2022-11-16T13:50:51.582Z,6.13
2022-11-16T13:56:16.451Z,6.16
2022-11-16T13:58:48.923Z,6.08
2022-11-16T14:01:16.974Z,6.05
2022-11-16T14:03:45.592Z,6.14
2022-11-16T14:06:24.673Z,6.16
2022-11-16T14:08:55.786Z,6.10
2022-11-16T14:11:33.321Z,6.09
2022-11-16T14:14:10.345Z,6.04
2022-11-16T14:16:46.146Z,6.05
2022-11-16T14:19:47.595Z,6.05
2022-11-16T14:22:44.661Z,5.97
2022-11-16T14:25:14.202Z,5.99
2022-11-16T14:28:07.083Z,6.01
2022-11-16T14:30:54.361Z,6.00
2022-11-16T14:33:30.169Z,5.97
2022-11-16T14:35:57.075Z,6.04
2022-11-16T14:38:29.229Z,6.06
2022-11-16T14:40:59.728Z,5.97
2022-11-16T14:43:41.889Z,5.98
2022-11-16T14:46:26.216Z,5.95
2022-11-16T14:48:55.379Z,5.90
2022-11-16T14:51:26.095Z,5.89
2022-11-16T14:53:57.995Z,5.88
2022-11-16T14:56:24.750Z,5.84
2022-11-16T14:58:59.952Z,5.90
2022-11-16T15:01:28.940Z,5.78
2022-11-16T15:04:05.370Z,5.70
2022-11-16T15:06:45.960Z,5.79
2022-11-16T15:09:35.465Z,5.83
2022-11-16T15:12:22.883Z,5.78
2022-11-16T15:14:53.820Z,5.70
2022-11-16T15:17:22.624Z,5.75
2022-11-16T15:19:56.124Z,5.77
2022-11-16T15:22:24.550Z,5.68
2022-11-16T15:24:56.450Z,5.72
2022-11-16T15:27:41.281Z,5.76
2022-11-16T15:30:20.074Z,5.75
2022-11-16T15:32:48.392Z,5.76
2022-11-16T15:35:32.870Z,5.77
2022-11-16T15:38:02.621Z,5.76
2022-11-16T15:40:30.441Z,5.64
2022-11-16T15:42:59.862Z,5.69
2022-11-16T15:45:27.555Z,5.60
2022-11-16T15:47:55.009Z,5.67
2022-11-16T15:50:26.171Z,5.65
2022-11-16T15:52:56.108Z,5.67
2022-11-16T15:55:24.246Z,5.64
2022-11-16T15:58:30.364Z,5.60
2022-11-16T16:00:59.308Z,5.53
2022-11-16T16:03:31.856Z,5.55
2022-11-16T16:05:59.103Z,5.48
2022-11-16T16:08:32.624Z,5.46
2022-11-16T16:11:01.514Z,5.50
2022-11-16T16:13:37.135Z,5.55
2022-11-16T16:16:37.523Z,5.62
2022-11-16T16:19:25.941Z,5.56
2022-11-16T16:21:53.006Z,5.46
2022-11-16T16:24:46.512Z,5.52
2022-11-16T16:27:24.697Z,5.46
2022-11-16T16:29:53.381Z,5.49
2022-11-16T16:32:30.161Z,5.47
2022-11-16T16:34:59.455Z,5.53
2022-11-16T16:37:29.031Z,5.55
2022-11-16T16:39:55.803Z,5.51
2022-11-16T16:42:22.604Z,5.49
2022-11-16T16:44:50.142Z,5.50
2022-11-16T16:47:20.760Z,5.52
2022-11-16T16:49:48.514Z,5.47
2022-11-16T16:52:15.834Z,5.42
2022-11-16T16:54:42.681Z,5.45
2022-11-16T16:57:14.143Z,5.49
2022-11-16T16:59:41.265Z,5.46
2022-11-16T17:02:11.405Z,5.48
2022-11-16T17:04:38.191Z,5.49
2022-11-16T17:07:05.497Z,5.52
2022-11-16T17:09:32.394Z,5.51
2022-11-16T17:11:59.112Z,5.49
2022-11-16T17:14:25.732Z,5.46
2022-11-16T17:16:52.631Z,5.46
2022-11-16T17:19:20.179Z,5.43
2022-11-16T17:21:46.942Z,5.37
2022-11-16T17:24:13.644Z,5.39
2022-11-16T17:26:40.978Z,5.42
2022-11-16T17:29:07.770Z,5.41
2022-11-16T17:31:34.476Z,5.41
2022-11-16T17:34:01.375Z,5.42
2022-11-16T17:36:28.125Z,5.41
2022-11-16T17:38:54.759Z,5.42
2022-11-16T17:41:25.736Z,5.41
2022-11-16T17:44:00.821Z,5.39
2022-11-16T17:46:36.510Z,5.36
2022-11-16T17:49:09.651Z,5.30
2022-11-16T17:51:42.588Z,5.31
2022-11-16T17:54:11.376Z,5.28
2022-11-16T17:56:43.326Z,5.39
2022-11-16T17:59:11.101Z,5.42
2022-11-16T18:01:42.140Z,5.39
2022-11-16T18:04:09.657Z,5.44
2022-11-16T18:06:36.513Z,5.47
2022-11-16T18:09:03.153Z,5.50
2022-11-16T18:11:29.951Z,5.35
2022-11-16T18:14:00.613Z,5.46
2022-11-16T18:16:30.123Z,5.39
2022-11-16T18:18:58.764Z,5.43
2022-11-16T18:21:25.917Z,5.46
2022-11-16T18:23:53.008Z,5.51
2022-11-16T18:26:21.286Z,5.51
2022-11-16T18:28:49.039Z,5.54
2022-11-16T18:31:19.212Z,5.56
2022-11-16T18:33:46.292Z,5.55
2022-11-16T18:36:13.342Z,5.64
2022-11-16T18:38:40.064Z,5.61
2022-11-16T18:41:13.592Z,5.67
2022-11-16T18:43:52.143Z,5.71
2022-11-16T18:46:20.790Z,5.72
2022-11-16T18:48:47.645Z,5.70
2022-11-16T18:51:15.013Z,5.60
2022-11-16T18:53:42.073Z,5.52
2022-11-16T18:56:30.792Z,5.48
2022-11-16T18:59:12.026Z,5.44
2022-11-16T19:02:16.194Z,5.45
2022-11-16T19:04:52.519Z,5.43
2022-11-16T19:07:30.017Z,5.47
2022-11-16T19:10:08.544Z,5.42
2022-11-16T19:12:45.279Z,5.38
2022-11-16T19:15:16.296Z,5.36
2022-11-16T19:18:28.979Z,5.41
2022-11-16T19:21:24.963Z,5.40
2022-11-16T19:23:53.355Z,5.42
2022-11-16T19:26:21.368Z,5.46
2022-11-16T19:28:49.344Z,5.46
2022-11-16T19:31:21.884Z,5.46
2022-11-16T19:33:48.792Z,5.46
2022-11-16T19:36:17.424Z,5.48
2022-11-16T19:38:45.429Z,5.49
2022-11-16T19:41:13.504Z,5.36
2022-11-16T19:43:40.698Z,5.40
2022-11-16T19:46:10.045Z,5.36
2022-11-16T19:48:37.525Z,5.34
2022-11-16T19:51:05.416Z,5.37
2022-11-16T19:53:32.937Z,5.38
2022-11-16T19:55:59.830Z,5.32
2022-11-16T19:58:26.593Z,5.31
2022-11-16T20:00:53.342Z,5.33
2022-11-16T20:03:20.060Z,5.35
2022-11-16T20:05:46.718Z,5.31
2022-11-16T20:08:13.377Z,5.27
2022-11-16T20:10:39.944Z,5.29
2022-11-16T20:13:06.657Z,5.31
2022-11-16T20:15:33.340Z,5.33
2022-11-16T20:17:59.912Z,5.30
2022-11-16T20:20:26.697Z,5.33
2022-11-16T20:22:53.801Z,5.34
2022-11-16T20:25:20.457Z,5.35
2022-11-16T20:27:47.221Z,5.35
2022-11-16T20:30:14.089Z,5.36
2022-11-16T20:32:40.731Z,5.38
2022-11-16T20:35:07.539Z,5.34
2022-11-16T20:37:40.602Z,5.38
2022-11-16T20:40:09.148Z,5.34
2022-11-16T20:42:35.812Z,5.30
2022-11-16T20:45:02.701Z,5.28
2022-11-16T20:47:29.296Z,5.26
2022-11-16T20:49:56.195Z,5.27
2022-11-16T20:52:24.141Z,5.30
2022-11-16T20:54:53.921Z,5.30
2022-11-16T20:57:20.537Z,5.23
2022-11-16T20:59:52.349Z,5.18
2022-11-16T21:02:19.038Z,5.19
2022-11-16T21:04:56.071Z,5.11
2022-11-16T21:07:27.422Z,5.07
2022-11-16T21:10:12.567Z,5.08
2022-11-16T21:12:58.530Z,4.94
2022-11-16T21:15:25.102Z,4.97
2022-11-16T21:18:08.249Z,4.85
2022-11-16T21:20:34.936Z,4.81
2022-11-16T21:23:02.604Z,4.82
2022-11-16T21:25:36.599Z,4.75
2022-11-16T21:28:08.879Z,4.55
2022-11-16T21:30:42.026Z,4.51
2022-11-16T21:33:12.603Z,4.59
2022-11-16T21:35:39.679Z,4.46
2022-11-16T21:38:06.265Z,4.34
2022-11-16T21:40:33.763Z,4.26
2022-11-16T21:43:10.140Z,4.32
2022-11-16T21:45:36.939Z,4.28
2022-11-16T21:48:12.455Z,4.34
2022-11-16T21:50:41.922Z,4.40
2022-11-16T21:53:09.180Z,4.43
2022-11-16T21:55:37.688Z,4.44
2022-11-16T21:58:12.008Z,4.46
2022-11-16T22:00:39.339Z,4.45
2022-11-16T22:03:09.317Z,4.61
2022-11-16T22:05:57.471Z,4.54
2022-11-16T22:08:24.269Z,4.58
2022-11-16T22:10:52.279Z,4.69
2022-11-16T22:13:19.482Z,4.71
2022-11-16T22:15:46.238Z,4.68
2022-11-16T22:18:13.459Z,4.69
2022-11-16T22:20:40.350Z,4.65
2022-11-16T22:23:06.964Z,4.78
2022-11-16T22:25:33.825Z,4.73
2022-11-16T22:30:51.387Z,4.76
2022-11-16T22:33:18.743Z,4.80
2022-11-16T22:35:46.954Z,4.84
2022-11-16T22:38:13.541Z,4.90
2022-11-16T22:40:40.142Z,4.93
2022-11-16T22:43:06.721Z,4.94
2022-11-16T22:45:33.293Z,4.92
2022-11-16T22:47:59.997Z,4.85
2022-11-16T22:50:26.718Z,4.86
2022-11-16T22:52:53.353Z,4.65
2022-11-16T22:55:19.950Z,4.72
2022-11-16T22:57:46.513Z,4.71
2022-11-16T23:00:13.847Z,4.72
2022-11-16T23:02:40.479Z,4.65
2022-11-16T23:05:07.475Z,4.69
2022-11-16T23:07:34.083Z,4.64
2022-11-16T23:10:00.780Z,4.39
2022-11-16T23:12:45.966Z,4.36
2022-11-16T23:15:31.859Z,4.28
2022-11-16T23:17:58.563Z,4.30
2022-11-16T23:20:43.684Z,4.30
2022-11-16T23:23:38.500Z,4.30
2022-11-16T23:26:27.570Z,4.21
2022-11-16T23:28:54.645Z,4.32
2022-11-16T23:31:21.196Z,4.33
2022-11-16T23:33:47.931Z,4.33
2022-11-16T23:36:14.836Z,4.25
2022-11-16T23:38:41.439Z,4.21
2022-11-16T23:41:26.843Z,4.15
2022-11-16T23:43:59.584Z,4.05
2022-11-16T23:46:30.783Z,3.94
2022-11-16T23:48:58.122Z,3.95
2022-11-16T23:51:25.133Z,3.93
2022-11-16T23:53:52.718Z,3.89
2022-11-16T23:56:20.330Z,3.81
2022-11-16T23:58:47.293Z,3.72
